createdAt,value
2022-12-10T00:01:10.693Z,99354.25
2022-12-10T00:03:38.853Z,99349.13
2022-12-10T00:06:09.859Z,99350.78
2022-12-10T00:08:37.640Z,99350.69
2022-12-10T00:11:06.877Z,99357.06
2022-12-10T00:13:35.899Z,99358.06
2022-12-10T00:16:04.273Z,99361.44
2022-12-10T00:18:32.068Z,99359.84
2022-12-10T00:20:59.873Z,99368.22
2022-12-10T00:23:28.942Z,99356.97
2022-12-10T00:25:56.630Z,99360.53
2022-12-10T00:28:24.361Z,99356.19
2022-12-10T00:30:52.088Z,99359.59
2022-12-10T00:33:19.803Z,99357.06
2022-12-10T00:35:47.593Z,99353.56
2022-12-10T00:38:15.356Z,99357.97
2022-12-10T00:40:44.461Z,99352.66
2022-12-10T00:43:12.200Z,99355.44
2022-12-10T00:45:39.909Z,99359.84
2022-12-10T00:48:07.721Z,99356.97
2022-12-10T00:50:35.513Z,99358.81
2022-12-10T00:53:03.245Z,99355.56
2022-12-10T00:55:30.968Z,99357.22
2022-12-10T00:58:00.103Z,99359.84
2022-12-10T01:00:27.855Z,99357.97
2022-12-10T01:02:55.712Z,99362.56
2022-12-10T01:05:23.477Z,99360.88
2022-12-10T01:07:53.306Z,99361.72
2022-12-10T01:10:21.108Z,99365.28
2022-12-10T01:12:48.843Z,99369.59
2022-12-10T01:15:17.962Z,99368.75
2022-12-10T01:17:45.610Z,99368.75
2022-12-10T01:20:13.743Z,99367.03
2022-12-10T01:22:41.487Z,99373.03
2022-12-10T01:25:10.154Z,99382.63
2022-12-10T01:27:37.998Z,99388.78
2022-12-10T01:30:06.996Z,99386.34
2022-12-10T01:32:36.160Z,99393.19
2022-12-10T01:35:03.913Z,99394.97
2022-12-10T01:37:31.638Z,99394.38
2022-12-10T01:39:59.342Z,99391.00
2022-12-10T01:42:27.020Z,99398.97
2022-12-10T01:45:11.944Z,99391.88
2022-12-10T01:47:41.238Z,99391.19
2022-12-10T01:50:10.858Z,99396.84
2022-12-10T01:52:39.373Z,99401.00
2022-12-10T01:55:30.961Z,99399.28
2022-12-10T01:57:58.898Z,99408.94
2022-12-10T02:00:26.622Z,99404.63
2022-12-10T02:03:00.957Z,99408.03
2022-12-10T02:05:35.164Z,99409.69
2022-12-10T02:08:13.060Z,99404.38
2022-12-10T02:10:54.864Z,99407.69
2022-12-10T02:13:28.763Z,99414.94
2022-12-10T02:16:02.439Z,99411.41
2022-12-10T02:18:37.970Z,99408.09
2022-12-10T02:21:10.783Z,99408.09
2022-12-10T02:23:42.096Z,99414.94
2022-12-10T02:26:17.555Z,99405.47
2022-12-10T02:28:53.643Z,99404.78
2022-12-10T02:31:27.605Z,99402.25
2022-12-10T02:33:59.227Z,99407.75
2022-12-10T02:36:30.951Z,99403.34
2022-12-10T02:39:02.178Z,99404.31
2022-12-10T02:41:35.871Z,99403.63
2022-12-10T02:44:08.898Z,99401.00
2022-12-10T02:46:39.164Z,99402.78
2022-12-10T02:49:09.763Z,99410.81
2022-12-10T02:51:37.687Z,99407.34
2022-12-10T02:54:07.433Z,99404.72
2022-12-10T02:56:38.930Z,99394.31
2022-12-10T02:59:17.865Z,99402.78
2022-12-10T03:01:57.584Z,99396.78
2022-12-10T03:04:30.888Z,99398.72
2022-12-10T03:07:04.881Z,99395.25
2022-12-10T03:09:39.309Z,99401.28
2022-12-10T03:12:17.274Z,99394.16
2022-12-10T03:14:46.811Z,99397.88
2022-12-10T03:17:16.925Z,99397.97
2022-12-10T03:19:46.802Z,99395.41
2022-12-10T03:22:18.305Z,99391.00
2022-12-10T03:24:46.133Z,99395.34
2022-12-10T03:27:15.448Z,99399.91
2022-12-10T03:29:47.887Z,99386.22
2022-12-10T03:32:18.478Z,99394.16
2022-12-10T03:34:47.046Z,99394.31
2022-12-10T03:37:15.628Z,99397.78
2022-12-10T03:39:44.469Z,99395.06
2022-12-10T03:42:12.215Z,99399.41
2022-12-10T03:44:41.326Z,99397.78
2022-12-10T03:47:11.740Z,99403.00
2022-12-10T03:49:40.850Z,99406.50
2022-12-10T03:52:08.575Z,99412.66
2022-12-10T03:54:36.266Z,99411.91
2022-12-10T03:57:04.179Z,99411.97
2022-12-10T03:59:31.858Z,99409.63
2022-12-10T04:01:59.722Z,99410.63
2022-12-10T04:04:27.446Z,99411.06
2022-12-10T04:06:56.590Z,99412.16
2022-12-10T04:09:24.315Z,99412.91
2022-12-10T04:11:52.002Z,99419.94
2022-12-10T04:14:37.105Z,99411.13
2022-12-10T04:17:04.868Z,99414.59
2022-12-10T04:19:32.645Z,99420.78
2022-12-10T04:22:19.063Z,99416.38
2022-12-10T04:25:04.169Z,99416.31
2022-12-10T04:27:34.884Z,99413.69
2022-12-10T04:30:02.648Z,99427.94
2022-12-10T04:32:31.398Z,99428.72
2022-12-10T04:34:59.201Z,99427.63
2022-12-10T04:37:28.856Z,99432.03
2022-12-10T04:39:56.682Z,99432.63
2022-12-10T04:42:24.617Z,99432.28
2022-12-10T04:44:52.322Z,99427.81
2022-12-10T04:47:20.439Z,99426.09
2022-12-10T04:49:48.244Z,99429.56
2022-12-10T04:52:17.448Z,99437.19
2022-12-10T04:54:46.632Z,99430.41
2022-12-10T04:57:15.081Z,99439.69
2022-12-10T04:59:42.899Z,99441.56
2022-12-10T05:02:10.770Z,99442.31
2022-12-10T05:04:38.568Z,99447.75
2022-12-10T05:07:06.307Z,99449.53
2022-12-10T05:09:33.952Z,99447.81
2022-12-10T05:12:03.069Z,99449.59
2022-12-10T05:14:30.768Z,99457.28
2022-12-10T05:16:58.543Z,99449.84
2022-12-10T05:19:28.075Z,99450.63
2022-12-10T05:22:16.095Z,99456.69
2022-12-10T05:24:43.738Z,99468.09
2022-12-10T05:27:12.731Z,99464.81
2022-12-10T05:29:40.548Z,99468.09
2022-12-10T05:32:08.198Z,99473.25
2022-12-10T05:34:35.947Z,99469.94
2022-12-10T05:37:03.673Z,99468.84
2022-12-10T05:39:31.346Z,99470.81
2022-12-10T05:41:59.082Z,99474.34
2022-12-10T05:44:28.155Z,99479.50
2022-12-10T05:46:55.819Z,99481.38
2022-12-10T05:49:23.527Z,99480.53
2022-12-10T05:51:51.271Z,99485.53
2022-12-10T05:54:18.999Z,99478.69
2022-12-10T05:56:46.667Z,99480.53
2022-12-10T05:59:16.950Z,99482.97
2022-12-10T06:01:46.902Z,99489.22
2022-12-10T06:04:15.049Z,99493.72
2022-12-10T06:06:43.165Z,99490.41
2022-12-10T06:09:14.260Z,99486.88
2022-12-10T06:11:42.337Z,99491.16
2022-12-10T06:14:11.248Z,99491.84
2022-12-10T06:16:40.480Z,99498.94
2022-12-10T06:19:09.538Z,99505.34
2022-12-10T06:21:37.468Z,99503.56
2022-12-10T06:24:05.369Z,99504.34
2022-12-10T06:26:33.166Z,99503.25
2022-12-10T06:29:01.338Z,99509.44
2022-12-10T06:31:29.090Z,99506.63
2022-12-10T06:33:56.890Z,99511.22
2022-12-10T06:36:25.945Z,99508.25
2022-12-10T06:38:53.665Z,99515.44
2022-12-10T06:41:22.272Z,99519.06
2022-12-10T06:43:50.804Z,99522.66
2022-12-10T06:46:21.693Z,99525.41
2022-12-10T06:48:49.592Z,99528.59
2022-12-10T06:51:18.383Z,99530.38
2022-12-10T06:53:47.862Z,99535.78
2022-12-10T06:56:18.020Z,99537.81
2022-12-10T06:58:46.092Z,99536.34
2022-12-10T07:01:15.971Z,99538.88
2022-12-10T07:03:44.844Z,99539.66
2022-12-10T07:06:13.763Z,99536.09
2022-12-10T07:08:41.890Z,99532.56
2022-12-10T07:11:13.347Z,99535.19
2022-12-10T07:13:41.911Z,99535.78
2022-12-10T07:16:15.089Z,99542.03
2022-12-10T07:18:47.425Z,99548.19
2022-12-10T07:21:19.612Z,99557.75
2022-12-10T07:23:47.655Z,99552.66
2022-12-10T07:26:16.836Z,99554.34
2022-12-10T07:28:52.766Z,99566.16
2022-12-10T07:31:22.346Z,99565.06
2022-12-10T07:33:50.728Z,99564.91
2022-12-10T07:36:18.635Z,99568.53
2022-12-10T07:38:46.356Z,99573.84
2022-12-10T07:41:16.437Z,99582.66
2022-12-10T07:43:46.135Z,99577.22
2022-12-10T07:46:16.547Z,99585.09
2022-12-10T07:48:46.358Z,99591.16
2022-12-10T07:51:15.432Z,99585.88
2022-12-10T07:53:43.816Z,99593.72
2022-12-10T07:56:12.731Z,99590.41
2022-12-10T07:58:44.395Z,99593.03
2022-12-10T08:01:13.726Z,99594.88
2022-12-10T08:03:42.303Z,99597.50
2022-12-10T08:06:11.919Z,99595.81
2022-12-10T08:08:40.641Z,99593.78
2022-12-10T08:11:09.161Z,99600.28
2022-12-10T08:13:37.545Z,99599.28
2022-12-10T08:16:09.175Z,99605.97
2022-12-10T08:18:37.691Z,99598.25
2022-12-10T08:21:06.901Z,99611.22
2022-12-10T08:23:35.001Z,99608.16
2022-12-10T08:26:05.606Z,99607.97
2022-12-10T08:28:33.552Z,99609.75
2022-12-10T08:31:01.681Z,99612.19
2022-12-10T08:33:31.146Z,99614.59
2022-12-10T08:36:00.603Z,99621.38
2022-12-10T08:38:28.418Z,99608.88
2022-12-10T08:40:56.173Z,99609.44
2022-12-10T08:43:23.902Z,99602.22
2022-12-10T08:45:51.747Z,99618.91
2022-12-10T08:48:19.475Z,99617.66
2022-12-10T08:50:48.538Z,99614.78
2022-12-10T08:53:16.544Z,99617.22
2022-12-10T08:55:48.905Z,99618.69
2022-12-10T08:58:16.970Z,99619.47
2022-12-10T09:00:44.845Z,99619.38
2022-12-10T09:03:12.569Z,99619.56
2022-12-10T09:05:40.710Z,99622.97
2022-12-10T09:08:09.825Z,99627.22
2022-12-10T09:10:38.246Z,99624.41
2022-12-10T09:13:06.320Z,99630.75
2022-12-10T09:15:34.378Z,99627.81
2022-12-10T09:18:02.221Z,99627.03
2022-12-10T09:20:29.958Z,99635.25
2022-12-10T09:22:57.693Z,99627.13
2022-12-10T09:25:26.862Z,99622.69
2022-12-10T09:27:54.571Z,99626.06
2022-12-10T09:30:22.327Z,99624.28
2022-12-10T09:32:50.031Z,99630.13
2022-12-10T09:35:17.847Z,99629.00
2022-12-10T09:37:45.513Z,99634.09
2022-12-10T09:40:17.318Z,99630.47
2022-12-10T09:42:55.072Z,99628.78
2022-12-10T09:45:32.002Z,99625.88
2022-12-10T09:48:07.916Z,99632.22
2022-12-10T09:50:43.805Z,99633.41
2022-12-10T09:53:16.541Z,99636.38
2022-12-10T09:55:47.957Z,99630.28
2022-12-10T09:58:26.229Z,99632.47
2022-12-10T10:01:00.490Z,99636.09
2022-12-10T10:03:28.345Z,99641.63
2022-12-10T10:05:58.382Z,99642.31
2022-12-10T10:08:31.517Z,99634.66
2022-12-10T10:11:00.729Z,99637.72
2022-12-10T10:13:37.926Z,99632.59
2022-12-10T10:16:22.341Z,99632.41
2022-12-10T10:18:54.932Z,99636.91
2022-12-10T10:21:24.741Z,99631.94
2022-12-10T10:23:52.937Z,99638.69
2022-12-10T10:26:20.870Z,99643.47
2022-12-10T10:28:54.425Z,99644.31
2022-12-10T10:31:25.933Z,99639.13
2022-12-10T10:33:57.735Z,99639.13
2022-12-10T10:36:29.587Z,99638.13
2022-12-10T10:38:57.474Z,99649.06
2022-12-10T10:41:27.095Z,99649.47
2022-12-10T10:44:04.818Z,99652.28
2022-12-10T10:46:38.140Z,99646.84
2022-12-10T10:49:17.106Z,99644.38
2022-12-10T10:51:46.602Z,99648.53
2022-12-10T10:54:32.192Z,99654.22
2022-12-10T10:57:02.681Z,99654.88
2022-12-10T10:59:36.542Z,99653.09
2022-12-10T11:02:18.159Z,99655.19
2022-12-10T11:04:51.342Z,99659.31
2022-12-10T11:07:26.120Z,99652.78
2022-12-10T11:09:55.423Z,99660.00
2022-12-10T11:12:30.945Z,99658.22
2022-12-10T11:15:00.042Z,99658.31
2022-12-10T11:17:29.224Z,99661.50
2022-12-10T11:20:00.757Z,99664.06
2022-12-10T11:22:30.469Z,99663.38
2022-12-10T11:24:58.596Z,99659.91
2022-12-10T11:27:44.200Z,99663.47
2022-12-10T11:30:16.532Z,99660.75
2022-12-10T11:33:00.607Z,99661.50
2022-12-10T11:35:44.199Z,99647.53
2022-12-10T11:38:22.960Z,99658.53
2022-12-10T11:40:54.368Z,99644.06
2022-12-10T11:43:38.254Z,99650.84
2022-12-10T11:46:21.264Z,99656.09
2022-12-10T11:49:02.421Z,99658.81
2022-12-10T11:51:38.997Z,99653.72
2022-12-10T11:54:19.481Z,99662.63
2022-12-10T11:56:52.016Z,99664.97
2022-12-10T11:59:46.232Z,99659.28
2022-12-10T12:02:36.016Z,99666.50
2022-12-10T12:05:19.520Z,99665.19
2022-12-10T12:07:57.518Z,99658.03
2022-12-10T12:10:54.517Z,99663.97
2022-12-10T12:13:26.825Z,99670.16
2022-12-10T12:15:59.408Z,99669.41
2022-12-10T12:18:39.097Z,99669.75
2022-12-10T12:21:11.341Z,99673.53
2022-12-10T12:23:48.835Z,99675.94
2022-12-10T12:26:21.857Z,99675.72
2022-12-10T12:28:53.079Z,99679.88
2022-12-10T12:31:24.117Z,99685.81
2022-12-10T12:34:00.181Z,99689.19
2022-12-10T12:36:31.337Z,99678.69
2022-12-10T12:39:04.664Z,99680.19
2022-12-10T12:41:42.047Z,99685.38
2022-12-10T12:44:16.422Z,99689.75
2022-12-10T12:46:47.620Z,99689.00
2022-12-10T12:49:24.616Z,99680.75
2022-12-10T12:51:56.522Z,99680.66
2022-12-10T12:54:24.808Z,99678.03
2022-12-10T12:57:01.938Z,99682.47
2022-12-10T12:59:51.901Z,99684.06
2022-12-10T13:02:43.115Z,99690.16
2022-12-10T13:05:18.363Z,99692.91
2022-12-10T13:07:47.226Z,99687.53
2022-12-10T13:10:46.008Z,99691.03
2022-12-10T13:13:27.227Z,99690.06
2022-12-10T13:15:55.616Z,99690.91
2022-12-10T13:18:36.272Z,99690.66
2022-12-10T13:21:27.924Z,99691.66
2022-12-10T13:24:06.887Z,99696.75
2022-12-10T13:26:34.771Z,99691.59
2022-12-10T13:29:24.283Z,99695.38
2022-12-10T13:31:58.553Z,99702.69
2022-12-10T13:34:36.866Z,99704.81
2022-12-10T13:37:18.955Z,99699.56
2022-12-10T13:39:56.406Z,99709.16
2022-12-10T13:42:51.302Z,99710.59
2022-12-10T13:45:36.020Z,99710.66
2022-12-10T13:48:28.390Z,99718.22
2022-12-10T13:51:14.984Z,99725.19
2022-12-10T13:53:55.372Z,99726.97
2022-12-10T13:56:30.085Z,99731.31
2022-12-10T13:59:15.832Z,99731.66
2022-12-10T14:01:51.346Z,99736.91
2022-12-10T14:04:36.923Z,99745.63
2022-12-10T14:07:05.081Z,99748.78
2022-12-10T14:09:40.081Z,99751.31
2022-12-10T14:12:16.402Z,99750.06
2022-12-10T14:14:48.225Z,99755.41
2022-12-10T14:17:18.800Z,99756.00
2022-12-10T14:19:49.939Z,99748.03
2022-12-10T14:22:20.639Z,99752.38
2022-12-10T14:24:51.831Z,99755.16
2022-12-10T14:27:22.182Z,99756.19
2022-12-10T14:29:52.055Z,99756.94
2022-12-10T14:32:33.488Z,99757.78
2022-12-10T14:35:02.143Z,99769.31
2022-12-10T14:37:32.893Z,99770.50
2022-12-10T14:40:02.591Z,99769.84
2022-12-10T14:42:30.369Z,99767.53
2022-12-10T14:45:00.936Z,99773.03
2022-12-10T14:47:34.117Z,99766.34
2022-12-10T14:50:03.409Z,99769.38
2022-12-10T14:52:36.854Z,99770.41
2022-12-10T14:55:07.070Z,99779.56
2022-12-10T14:57:39.715Z,99789.19
2022-12-10T15:00:12.475Z,99786.97
2022-12-10T15:02:42.933Z,99792.53
2022-12-10T15:05:14.024Z,99791.19
2022-12-10T15:07:41.965Z,99790.81
2022-12-10T15:10:19.545Z,99799.84
2022-12-10T15:12:50.290Z,99797.16
2022-12-10T15:15:22.963Z,99794.84
2022-12-10T15:18:00.185Z,99801.88
2022-12-10T15:20:31.580Z,99805.72
2022-12-10T15:23:10.833Z,99809.19
2022-12-10T15:25:47.658Z,99811.22
2022-12-10T15:28:28.447Z,99808.66
2022-12-10T15:30:59.003Z,99806.19
2022-12-10T15:33:34.069Z,99808.13
2022-12-10T15:36:02.663Z,99810.88
2022-12-10T15:38:30.709Z,99810.19
2022-12-10T15:41:33.829Z,99814.81
2022-12-10T15:44:05.285Z,99816.91
2022-12-10T15:46:33.165Z,99811.78
2022-12-10T15:49:01.414Z,99812.69
2022-12-10T15:51:29.107Z,99818.94
2022-12-10T15:53:56.943Z,99817.56
2022-12-10T15:56:26.039Z,99824.72
2022-12-10T15:58:53.813Z,99824.03
2022-12-10T16:01:22.128Z,99835.63
2022-12-10T16:03:50.005Z,99827.28
2022-12-10T16:06:19.934Z,99826.59
2022-12-10T16:08:47.901Z,99833.81
2022-12-10T16:11:19.226Z,99830.44
2022-12-10T16:13:53.068Z,99829.06
2022-12-10T16:16:21.467Z,99832.91
2022-12-10T16:18:49.282Z,99838.56
2022-12-10T16:21:17.020Z,99832.16
2022-12-10T16:23:44.778Z,99839.13
2022-12-10T16:26:17.288Z,99840.19
2022-12-10T16:28:45.364Z,99837.69
2022-12-10T16:31:17.943Z,99839.53
2022-12-10T16:33:45.780Z,99842.06
2022-12-10T16:36:14.013Z,99843.84
2022-12-10T16:38:42.820Z,99841.44
2022-12-10T16:41:23.056Z,99837.13
2022-12-10T16:43:50.899Z,99848.59
2022-12-10T16:46:20.107Z,99846.94
2022-12-10T16:48:48.092Z,99847.81
2022-12-10T16:51:20.086Z,99851.59
2022-12-10T16:53:47.853Z,99849.13
2022-12-10T16:56:16.659Z,99854.47
2022-12-10T16:58:46.092Z,99848.78
2022-12-10T17:01:24.724Z,99853.81
2022-12-10T17:03:53.281Z,99852.97
2022-12-10T17:06:21.667Z,99860.88
2022-12-10T17:08:50.130Z,99857.38
2022-12-10T17:11:38.705Z,99861.88
2022-12-10T17:14:07.762Z,99859.13
2022-12-10T17:16:36.863Z,99862.94
2022-12-10T17:19:04.962Z,99869.16
2022-12-10T17:21:38.282Z,99865.06
2022-12-10T17:24:06.895Z,99870.38
2022-12-10T17:26:39.669Z,99872.28
2022-12-10T17:29:13.565Z,99875.16
2022-12-10T17:31:42.731Z,99885.00
2022-12-10T17:34:12.166Z,99888.47
2022-12-10T17:36:40.404Z,99878.09
2022-12-10T17:39:08.570Z,99879.78
2022-12-10T17:41:37.379Z,99877.94
2022-12-10T17:44:05.250Z,99875.38
2022-12-10T17:46:33.674Z,99884.94
2022-12-10T17:49:03.127Z,99888.31
2022-12-10T17:51:32.123Z,99893.53
2022-12-10T17:53:59.874Z,99894.38
2022-12-10T17:56:30.711Z,99894.44
2022-12-10T17:58:59.122Z,99897.09
2022-12-10T18:01:28.286Z,99902.22
2022-12-10T18:03:56.737Z,99908.22
2022-12-10T18:06:28.178Z,99904.84
2022-12-10T18:08:57.894Z,99905.09
2022-12-10T18:11:28.402Z,99901.09
2022-12-10T18:13:56.289Z,99904.81
2022-12-10T18:16:28.259Z,99898.00
2022-12-10T18:18:56.796Z,99893.47
2022-12-10T18:21:26.093Z,99898.66
2022-12-10T18:23:53.820Z,99902.72
2022-12-10T18:26:24.066Z,99904.59
2022-12-10T18:28:55.303Z,99907.59
2022-12-10T18:31:25.861Z,99909.50
2022-12-10T18:33:56.164Z,99920.00
2022-12-10T18:36:27.466Z,99911.38
2022-12-10T18:38:57.255Z,99920.34
2022-12-10T18:41:25.903Z,99916.06
2022-12-10T18:43:53.903Z,99917.00
2022-12-10T18:46:24.068Z,99919.63
2022-12-10T18:48:52.744Z,99917.19
2022-12-10T18:51:20.820Z,99912.94
2022-12-10T18:53:50.332Z,99915.75
2022-12-10T18:56:20.578Z,99921.03
2022-12-10T18:58:49.086Z,99921.13
2022-12-10T19:01:18.704Z,99926.56
2022-12-10T19:03:48.363Z,99919.50
2022-12-10T19:06:18.311Z,99921.38
2022-12-10T19:09:16.591Z,99910.97
2022-12-10T19:11:36.042Z,99918.75
2022-12-10T19:14:04.019Z,99914.47
2022-12-10T19:16:31.887Z,99917.97
2022-12-10T19:19:02.483Z,99923.19
2022-12-10T19:21:30.635Z,99920.72
2022-12-10T19:23:58.500Z,99919.13
2022-12-10T19:26:29.033Z,99922.03
2022-12-10T19:28:58.188Z,99924.69
2022-12-10T19:31:26.458Z,99920.25
2022-12-10T19:33:54.250Z,99915.00
2022-12-10T19:36:24.525Z,99918.44
2022-12-10T19:38:52.397Z,99918.50
2022-12-10T19:41:20.351Z,99921.94
2022-12-10T19:43:48.371Z,99923.72
2022-12-10T19:46:19.920Z,99918.53
2022-12-10T19:48:48.721Z,99923.78
2022-12-10T19:51:16.505Z,99920.31
2022-12-10T19:53:47.794Z,99917.88
2022-12-10T19:56:22.216Z,99924.88
2022-12-10T19:58:51.669Z,99931.13
2022-12-10T20:01:21.695Z,99928.50
2022-12-10T20:03:49.697Z,99921.63
2022-12-10T20:06:21.309Z,99922.50
2022-12-10T20:08:49.618Z,99928.00
2022-12-10T20:11:17.457Z,99930.75
2022-12-10T20:13:45.203Z,99929.81
2022-12-10T20:16:17.857Z,99929.81
2022-12-10T20:18:47.540Z,99925.53
2022-12-10T20:21:16.006Z,99931.72
2022-12-10T20:23:44.186Z,99936.16
2022-12-10T20:26:18.317Z,99946.69
2022-12-10T20:28:46.971Z,99934.63
2022-12-10T20:31:14.909Z,99947.72
2022-12-10T20:33:47.200Z,99939.97
2022-12-10T20:36:19.819Z,99941.56
2022-12-10T20:38:48.283Z,99947.66
2022-12-10T20:41:17.518Z,99943.19
2022-12-10T20:43:45.807Z,99946.69
2022-12-10T20:46:17.314Z,99939.09
2022-12-10T20:48:45.207Z,99947.00
2022-12-10T20:51:13.427Z,99939.16
2022-12-10T20:53:42.997Z,99935.81
2022-12-10T20:56:13.668Z,99931.66
2022-12-10T20:58:41.576Z,99932.66
2022-12-10T21:01:09.485Z,99934.66
2022-12-10T21:03:38.052Z,99932.94
2022-12-10T21:06:06.968Z,99925.94
2022-12-10T21:08:35.260Z,99933.25
2022-12-10T21:11:05.621Z,99934.25
2022-12-10T21:13:33.598Z,99942.03
2022-12-10T21:16:03.232Z,99936.06
2022-12-10T21:18:31.933Z,99937.66
2022-12-10T21:21:01.254Z,99931.72
2022-12-10T21:23:30.212Z,99936.06
2022-12-10T21:25:58.667Z,99930.22
2022-12-10T21:28:28.332Z,99929.34
2022-12-10T21:30:56.269Z,99932.78
2022-12-10T21:33:26.312Z,99936.28
2022-12-10T21:35:55.332Z,99938.03
2022-12-10T21:38:23.311Z,99935.44
2022-12-10T21:40:51.533Z,99930.44
2022-12-10T21:43:21.787Z,99931.59
2022-12-10T21:45:53.079Z,99930.00
2022-12-10T21:48:23.138Z,99930.09
2022-12-10T21:50:57.857Z,99924.88
2022-12-10T21:53:25.858Z,99930.81
2022-12-10T21:55:53.634Z,99931.69
2022-12-10T21:58:21.676Z,99926.47
2022-12-10T22:00:57.760Z,99922.22
2022-12-10T22:03:26.098Z,99924.03
2022-12-10T22:05:54.135Z,99921.56
2022-12-10T22:08:22.082Z,99923.44
2022-12-10T22:10:50.706Z,99923.47
2022-12-10T22:13:19.208Z,99914.03
2022-12-10T22:15:47.999Z,99917.50
2022-12-10T22:18:17.605Z,99920.13
2022-12-10T22:20:45.528Z,99917.56
2022-12-10T22:23:15.549Z,99916.06
2022-12-10T22:25:43.820Z,99925.78
2022-12-10T22:28:11.586Z,99914.59
2022-12-10T22:30:40.443Z,99920.09
2022-12-10T22:33:08.787Z,99920.97
2022-12-10T22:35:38.826Z,99923.56
2022-12-10T22:38:06.908Z,99918.13
2022-12-10T22:40:35.210Z,99922.28
2022-12-10T22:43:26.291Z,99920.41
2022-12-10T22:45:55.560Z,99919.59
2022-12-10T22:48:23.766Z,99904.78
2022-12-10T22:51:01.085Z,99910.06
2022-12-10T22:53:29.345Z,99904.88
2022-12-10T22:56:00.665Z,99904.03
2022-12-10T22:58:28.727Z,99906.69
2022-12-10T23:00:56.744Z,99909.47
2022-12-10T23:03:25.583Z,99907.06
2022-12-10T23:05:55.150Z,99908.09
2022-12-10T23:08:24.657Z,99900.41
2022-12-10T23:10:53.218Z,99902.22
2022-12-10T23:13:22.299Z,99907.53
2022-12-10T23:15:54.122Z,99905.81
2022-12-10T23:18:23.651Z,99898.09
2022-12-10T23:20:52.168Z,99899.75
2022-12-10T23:23:21.870Z,99902.41
2022-12-10T23:25:50.267Z,99900.59
2022-12-10T23:28:18.898Z,99900.47
2022-12-10T23:30:46.856Z,99898.72
2022-12-10T23:33:14.613Z,99899.59
2022-12-10T23:35:43.236Z,99904.94
2022-12-10T23:38:11.471Z,99903.16
2022-12-10T23:40:42.564Z,99903.13
2022-12-10T23:43:10.428Z,99902.72
2022-12-10T23:45:39.242Z,99900.13
2022-12-10T23:48:08.021Z,99893.94
2022-12-10T23:50:35.963Z,99889.63
2022-12-10T23:53:04.963Z,99893.94
2022-12-10T23:55:32.904Z,99886.94
2022-12-10T23:58:01.992Z,99894.50
